createdAt,value
2018-11-01T00:04:43.399Z,6.70
2018-11-01T00:09:47.278Z,6.70
2018-11-01T00:14:50.929Z,6.60
2018-11-01T00:19:54.740Z,6.60
2018-11-01T00:24:58.568Z,6.30
2018-11-01T00:30:02.095Z,6.00
2018-11-01T00:35:06.039Z,5.80
2018-11-01T00:40:12.567Z,5.60
2018-11-01T00:45:16.187Z,5.60
2018-11-01T00:50:19.766Z,5.50
2018-11-01T00:55:23.620Z,5.60
2018-11-01T01:00:27.366Z,5.70
2018-11-01T01:05:31.311Z,5.50
2018-11-01T01:10:34.883Z,5.50
2018-11-01T01:15:40.506Z,5.40
2018-11-01T01:20:44.065Z,5.40
2018-11-01T01:25:47.618Z,5.30
2018-11-01T01:30:51.425Z,5.40
2018-11-01T01:35:54.963Z,5.40
2018-11-01T01:40:58.556Z,5.30
2018-11-01T01:46:02.747Z,5.30
2018-11-01T01:51:06.398Z,5.30
2018-11-01T01:56:10.101Z,5.30
2018-11-01T02:01:13.686Z,5.30
2018-11-01T02:06:18.391Z,5.30
2018-11-01T02:11:22.167Z,5.40
2018-11-01T02:16:26.643Z,5.50
2018-11-01T02:21:30.330Z,5.30
2018-11-01T02:26:33.998Z,5.30
2018-11-01T02:31:38.291Z,5.50
2018-11-01T02:36:44.020Z,5.70
2018-11-01T02:41:47.605Z,5.70
2018-11-01T02:46:51.144Z,5.60
2018-11-01T02:51:54.657Z,5.50
2018-11-01T02:56:58.379Z,5.30
2018-11-01T03:02:02.174Z,5.10
2018-11-01T03:07:05.817Z,4.90
2018-11-01T03:12:09.350Z,4.80
2018-11-01T03:17:13.133Z,4.80
2018-11-01T03:22:16.733Z,4.70
2018-11-01T03:27:20.475Z,4.80
2018-11-01T03:32:24.211Z,4.80
2018-11-01T03:37:27.732Z,4.80
2018-11-01T03:42:31.311Z,4.60
2018-11-01T03:47:35.071Z,4.50
2018-11-01T03:52:38.678Z,4.40
2018-11-01T03:57:42.943Z,4.30
2018-11-01T04:02:47.574Z,4.20
2018-11-01T04:07:51.203Z,4.10
2018-11-01T04:12:54.787Z,4.00
2018-11-01T04:17:58.407Z,3.90
2018-11-01T04:23:02.246Z,3.90
2018-11-01T04:28:05.846Z,3.90
2018-11-01T04:33:09.419Z,4.00
2018-11-01T04:38:14.067Z,3.80
2018-11-01T04:43:17.874Z,3.60
2018-11-01T04:48:21.404Z,3.60
2018-11-01T04:53:25.516Z,3.60
2018-11-01T04:58:29.339Z,3.70
2018-11-01T05:03:33.033Z,3.60
2018-11-01T05:08:36.750Z,3.40
2018-11-01T05:13:40.334Z,3.40
2018-11-01T05:18:46.778Z,3.30
2018-11-01T05:23:52.572Z,3.20
2018-11-01T05:28:56.154Z,3.20
2018-11-01T05:34:00.730Z,3.40
2018-11-01T05:39:05.616Z,3.40
2018-11-01T05:44:10.431Z,3.30
2018-11-01T05:49:14.070Z,3.20
2018-11-01T05:54:19.315Z,3.10
2018-11-01T05:59:23.035Z,3.20
2018-11-01T06:04:26.578Z,3.20
2018-11-01T06:09:33.202Z,3.20
2018-11-01T06:14:36.852Z,3.20
2018-11-01T06:19:40.390Z,3.20
2018-11-01T06:24:45.995Z,3.50
2018-11-01T06:29:49.626Z,3.50
2018-11-01T06:34:58.514Z,3.50
2018-11-01T06:40:02.090Z,3.50
2018-11-01T06:45:06.356Z,3.30
2018-11-01T06:50:11.722Z,3.60
2018-11-01T06:55:16.153Z,3.80
2018-11-01T07:00:22.996Z,4.10
2018-11-01T07:05:27.742Z,3.90
2018-11-01T07:10:31.304Z,3.70
2018-11-01T07:15:34.970Z,3.60
2018-11-01T07:20:38.722Z,3.70
2018-11-01T07:25:42.606Z,3.70
2018-11-01T07:30:46.249Z,3.80
2018-11-01T07:35:51.131Z,4.00
2018-11-01T07:40:54.745Z,4.10
2018-11-01T07:45:58.651Z,4.30
2018-11-01T07:51:04.450Z,4.40
2018-11-01T07:56:08.183Z,4.50
2018-11-01T08:01:11.883Z,4.60
2018-11-01T08:06:15.410Z,4.50
2018-11-01T08:11:19.161Z,4.50
2018-11-01T08:16:22.853Z,4.50
2018-11-01T08:21:26.903Z,4.60
2018-11-01T08:26:31.868Z,4.70
2018-11-01T08:31:36.787Z,4.80
2018-11-01T08:36:41.550Z,5.00
2018-11-01T08:41:45.730Z,5.20
2018-11-01T08:46:49.330Z,5.30
2018-11-01T08:51:53.288Z,5.40
2018-11-01T08:56:58.067Z,5.40
2018-11-01T09:02:01.718Z,5.60
2018-11-01T09:07:05.355Z,5.80
2018-11-01T09:12:09.042Z,5.90
2018-11-01T09:17:12.627Z,6.00
2018-11-01T09:22:16.346Z,5.80
2018-11-01T09:27:19.985Z,5.90
2018-11-01T09:32:23.663Z,6.20
2018-11-01T09:37:27.202Z,6.40
2018-11-01T09:42:35.123Z,6.50
2018-11-01T09:47:39.343Z,6.60
2018-11-01T09:52:43.027Z,6.70
2018-11-01T09:57:46.675Z,6.90
2018-11-01T10:02:50.494Z,6.90
2018-11-01T10:07:55.186Z,6.90
2018-11-01T10:12:59.781Z,7.00
2018-11-01T10:18:03.977Z,7.00
2018-11-01T10:23:07.424Z,7.00
2018-11-01T10:28:10.936Z,7.10
2018-11-01T10:33:14.671Z,7.20
2018-11-01T10:38:18.531Z,7.20
2018-11-01T10:43:22.195Z,7.00
2018-11-01T10:48:26.903Z,7.10
2018-11-01T10:53:30.658Z,7.10
2018-11-01T10:58:34.403Z,7.30
2018-11-01T11:03:38.236Z,7.30
2018-11-01T11:08:43.530Z,7.20
2018-11-01T11:13:47.088Z,7.40
2018-11-01T11:18:50.923Z,7.70
2018-11-01T11:23:59.085Z,7.70
2018-11-01T11:29:02.777Z,8.00
2018-11-01T11:34:06.530Z,7.90
2018-11-01T11:39:14.798Z,8.00
2018-11-01T11:44:18.490Z,8.00
2018-11-01T11:49:23.166Z,8.00
2018-11-01T11:54:30.507Z,8.00
2018-11-01T11:59:34.399Z,8.00
2018-11-01T12:04:39.876Z,8.00
2018-11-01T12:09:43.418Z,8.00
2018-11-01T12:14:46.996Z,8.10
2018-11-01T12:19:51.647Z,8.10
2018-11-01T12:24:56.116Z,8.30
2018-11-01T12:29:59.856Z,8.20
2018-11-01T12:35:03.638Z,8.30
2018-11-01T12:40:08.599Z,8.10
2018-11-01T12:45:14.238Z,8.10
2018-11-01T12:50:17.893Z,8.10
2018-11-01T12:55:22.402Z,8.10
2018-11-01T13:00:25.969Z,8.10
2018-11-01T13:05:31.332Z,8.20
2018-11-01T13:10:35.054Z,8.10
2018-11-01T13:15:38.666Z,8.20
2018-11-01T13:20:42.367Z,8.20
2018-11-01T13:25:46.032Z,8.20
2018-11-01T13:30:49.799Z,8.20
2018-11-01T13:35:53.355Z,8.20
2018-11-01T13:40:57.381Z,8.20
2018-11-01T13:46:00.541Z,8.40
2018-11-01T13:51:04.154Z,8.40
2018-11-01T13:56:07.779Z,8.40
2018-11-01T14:01:12.469Z,8.30
2018-11-01T14:06:16.411Z,8.40
2018-11-01T14:11:20.027Z,8.50
2018-11-01T14:16:23.704Z,8.80
2018-11-01T14:21:27.308Z,8.50
2018-11-01T14:26:31.616Z,8.30
2018-11-01T14:31:36.291Z,8.30
2018-11-01T14:36:40.923Z,8.30
2018-11-01T14:41:52.269Z,8.30
2018-11-01T14:47:03.404Z,8.30
2018-11-01T14:52:08.052Z,8.30
2018-11-01T15:00:07.474Z,8.30
2018-11-01T15:05:12.454Z,8.30
2018-11-01T15:10:16.330Z,8.30
2018-11-01T15:15:19.955Z,8.40
2018-11-01T15:20:23.616Z,8.50
2018-11-01T15:25:27.362Z,7.60
2018-11-01T15:30:30.946Z,8.60
2018-11-01T15:35:34.913Z,8.50
2018-11-01T15:40:38.697Z,8.40
2018-11-01T15:45:44.377Z,8.40
2018-11-01T15:50:48.980Z,8.30
2018-11-01T15:55:55.035Z,8.40
2018-11-01T16:00:59.639Z,8.30
2018-11-01T16:06:04.373Z,8.20
2018-11-01T16:11:11.540Z,8.00
2018-11-01T16:16:16.701Z,7.70
2018-11-01T16:21:20.879Z,7.30
2018-11-01T16:26:25.110Z,7.10
2018-11-01T16:31:28.722Z,7.10
2018-11-01T16:36:33.666Z,7.00
2018-11-01T16:41:37.283Z,6.90
2018-11-01T16:46:41.000Z,6.80
2018-11-01T16:51:47.823Z,6.80
2018-11-01T16:56:53.618Z,6.80
2018-11-01T17:01:57.239Z,6.70
2018-11-01T17:07:01.504Z,6.70
2018-11-01T17:12:05.869Z,6.70
2018-11-01T17:17:09.636Z,6.60
2018-11-01T17:22:13.400Z,6.40
2018-11-01T17:27:22.116Z,6.40
2018-11-01T17:32:25.854Z,6.20
2018-11-01T17:37:30.652Z,6.00
2018-11-01T17:42:35.387Z,6.10
2018-11-01T17:47:39.334Z,6.20
2018-11-01T17:52:43.408Z,6.30
2018-11-01T17:57:48.064Z,6.40
2018-11-01T18:02:51.765Z,6.50
2018-11-01T18:07:55.374Z,6.60
2018-11-01T18:13:01.027Z,6.80
2018-11-01T18:18:04.890Z,6.80
2018-11-01T18:23:10.529Z,6.90
2018-11-01T18:28:15.210Z,6.80
2018-11-01T18:33:19.626Z,6.80
2018-11-01T18:38:24.902Z,6.80
2018-11-01T18:43:28.582Z,6.70
2018-11-01T18:48:32.340Z,6.60
2018-11-01T18:53:38.610Z,6.60
2018-11-01T18:58:42.522Z,6.40
2018-11-01T19:03:47.430Z,6.40
2018-11-01T19:08:51.949Z,6.40
2018-11-01T19:13:56.680Z,6.50
2018-11-01T19:19:03.107Z,6.50
2018-11-01T19:24:07.300Z,6.50
2018-11-01T19:29:11.264Z,6.50
2018-11-01T19:34:18.643Z,6.60
2018-11-01T19:39:23.719Z,6.50
2018-11-01T19:44:28.678Z,6.50
2018-11-01T19:49:35.192Z,6.40
2018-11-01T19:54:38.915Z,6.40
2018-11-01T19:59:42.551Z,6.50
2018-11-01T20:04:46.287Z,6.40
2018-11-01T20:09:50.961Z,6.40
2018-11-01T20:14:54.800Z,6.40
2018-11-01T20:19:58.352Z,6.30
2018-11-01T20:25:01.956Z,6.40
2018-11-01T20:30:13.536Z,6.40
2018-11-01T20:35:18.417Z,6.40
2018-11-01T20:40:22.299Z,6.40
2018-11-01T20:45:27.930Z,6.50
2018-11-01T20:50:32.115Z,6.50
2018-11-01T20:55:35.803Z,6.60
2018-11-01T21:05:50.066Z,6.70
2018-11-01T21:10:56.042Z,6.70
2018-11-01T21:15:59.811Z,6.60
2018-11-01T21:21:03.441Z,6.60
2018-11-01T21:26:09.180Z,6.70
2018-11-01T21:31:12.874Z,6.80
2018-11-01T21:36:16.755Z,6.80
2018-11-01T21:41:20.386Z,6.90
2018-11-01T21:46:26.074Z,7.00
2018-11-01T21:51:29.953Z,7.10
2018-11-01T21:56:35.388Z,7.10
2018-11-01T22:01:39.342Z,7.10
2018-11-01T22:06:43.013Z,7.30
2018-11-01T22:11:47.918Z,7.40
2018-11-01T22:16:52.790Z,7.30
2018-11-01T22:21:56.414Z,7.30
2018-11-01T22:27:00.846Z,7.40
2018-11-01T22:32:04.904Z,7.40
2018-11-01T22:37:09.634Z,7.40
2018-11-01T22:42:13.259Z,7.40
2018-11-01T22:47:17.481Z,7.40
2018-11-01T22:52:21.155Z,7.50
2018-11-01T22:57:24.877Z,7.50
2018-11-01T23:02:28.501Z,7.60
2018-11-01T23:07:32.083Z,7.80
2018-11-01T23:12:36.336Z,7.90
2018-11-01T23:17:40.956Z,8.00
2018-11-01T23:22:44.673Z,8.00
2018-11-01T23:27:48.325Z,8.10
2018-11-01T23:32:52.395Z,8.00
2018-11-01T23:38:02.032Z,7.90
2018-11-01T23:43:11.135Z,7.90
2018-11-01T23:48:13.871Z,7.90
2018-11-01T23:53:21.811Z,7.50
2018-11-01T23:58:25.638Z,7.30
